sensor_id;sensor_type;location;lat;lon;timestamp;pressure;altitude;pressure_sealevel;temperature;humidity
53868;BME280;41577;47.470;19.080;2022-12-18T00:02:10;101571.78;;;-2.17;100.00
53868;BME280;41577;47.470;19.080;2022-12-18T00:17:13;101611.47;;;-2.26;100.00
53868;BME280;41577;47.470;19.080;2022-12-18T00:32:15;101636.34;;;-2.35;100.00
53868;BME280;41577;47.470;19.080;2022-12-18T00:47:19;101658.75;;;-2.48;100.00
53868;BME280;41577;47.470;19.080;2022-12-18T01:02:21;101675.53;;;-2.54;100.00
53868;BME280;41577;47.470;19.080;2022-12-18T01:17:25;101692.13;;;-2.53;100.00
53868;BME280;41577;47.470;19.080;2022-12-18T01:32:31;101700.72;;;-2.51;100.00
53868;BME280;41577;47.470;19.080;2022-12-18T01:47:36;101707.88;;;-2.55;100.00
53868;BME280;41577;47.470;19.080;2022-12-18T02:02:40;101732.84;;;-2.68;100.00
53868;BME280;41577;47.470;19.080;2022-12-18T02:17:47;101745.66;;;-2.62;100.00
53868;BME280;41577;47.470;19.080;2022-12-18T02:32:52;101764.19;;;-2.66;100.00
53868;BME280;41577;47.470;19.080;2022-12-18T02:47:55;101771.44;;;-2.73;100.00
53868;BME280;41577;47.470;19.080;2022-12-18T03:03:03;101799.78;;;-2.84;100.00
53868;BME280;41577;47.470;19.080;2022-12-18T03:18:12;101804.69;;;-2.77;100.00
53868;BME280;41577;47.470;19.080;2022-12-18T03:33:19;101826.63;;;-2.81;100.00
53868;BME280;41577;47.470;19.080;2022-12-18T03:48:29;101850.13;;;-2.79;100.00
53868;BME280;41577;47.470;19.080;2022-12-18T04:03:39;101841.56;;;-2.83;100.00
53868;BME280;41577;47.470;19.080;2022-12-18T04:18:43;101855.38;;;-3.01;100.00
53868;BME280;41577;47.470;19.080;2022-12-18T04:33:46;101871.31;;;-3.07;100.00
53868;BME280;41577;47.470;19.080;2022-12-18T04:48:49;101900.53;;;-3.42;100.00
53868;BME280;41577;47.470;19.080;2022-12-18T05:03:52;101911.88;;;-3.66;100.00
53868;BME280;41577;47.470;19.080;2022-12-18T05:18:54;101928.84;;;-3.78;100.00
53868;BME280;41577;47.470;19.080;2022-12-18T05:33:57;101944.91;;;-3.89;100.00
53868;BME280;41577;47.470;19.080;2022-12-18T05:49:00;101954.66;;;-3.94;100.00
53868;BME280;41577;47.470;19.080;2022-12-18T06:04:02;101974.53;;;-4.15;100.00
53868;BME280;41577;47.470;19.080;2022-12-18T06:19:05;101973.16;;;-4.27;100.00
53868;BME280;41577;47.470;19.080;2022-12-18T06:34:07;102005.47;;;-4.31;100.00
53868;BME280;41577;47.470;19.080;2022-12-18T06:49:09;102036.25;;;-4.15;100.00
53868;BME280;41577;47.470;19.080;2022-12-18T07:04:11;102063.09;;;-4.12;100.00
53868;BME280;41577;47.470;19.080;2022-12-18T07:19:14;102077.88;;;-3.86;100.00
53868;BME280;41577;47.470;19.080;2022-12-18T07:34:17;102114.25;;;-3.54;100.00
53868;BME280;41577;47.470;19.080;2022-12-18T07:49:19;102126.28;;;-3.25;100.00
53868;BME280;41577;47.470;19.080;2022-12-18T08:04:21;102151.06;;;-2.87;100.00
53868;BME280;41577;47.470;19.080;2022-12-18T08:19:25;102161.81;;;-2.49;100.00
53868;BME280;41577;47.470;19.080;2022-12-18T08:34:28;102183.44;;;-1.98;100.00
53868;BME280;41577;47.470;19.080;2022-12-18T08:49:30;102177.72;;;-1.43;100.00
53868;BME280;41577;47.470;19.080;2022-12-18T09:04:33;102198.41;;;-0.96;100.00
53868;BME280;41577;47.470;19.080;2022-12-18T09:19:35;102205.25;;;-0.73;100.00
53868;BME280;41577;47.470;19.080;2022-12-18T09:34:37;102204.78;;;-0.44;100.00
53868;BME280;41577;47.470;19.080;2022-12-18T09:49:42;102204.88;;;-0.07;100.00
53868;BME280;41577;47.470;19.080;2022-12-18T10:04:50;102200.91;;;0.20;99.01
53868;BME280;41577;47.470;19.080;2022-12-18T10:19:57;102195.25;;;0.47;97.22
53868;BME280;41577;47.470;19.080;2022-12-18T10:35:01;102191.94;;;0.78;95.06
53868;BME280;41577;47.470;19.080;2022-12-18T10:50:04;102197.13;;;1.13;92.42
53868;BME280;41577;47.470;19.080;2022-12-18T11:05:23;102190.75;;;1.35;92.70
53868;BME280;41577;47.470;19.080;2022-12-18T11:20:31;102183.25;;;1.76;88.99
53868;BME280;41577;47.470;19.080;2022-12-18T11:35:42;102167.34;;;1.94;86.99
53868;BME280;41577;47.470;19.080;2022-12-18T11:50:49;102158.75;;;2.06;84.75
53868;BME280;41577;47.470;19.080;2022-12-18T12:06:06;102143.19;;;2.62;78.82
53868;BME280;41577;47.470;19.080;2022-12-18T12:21:15;102145.06;;;2.90;79.81
53868;BME280;41577;47.470;19.080;2022-12-18T12:36:31;102144.19;;;2.89;79.18
53868;BME280;41577;47.470;19.080;2022-12-18T12:51:41;102167.81;;;2.77;77.95
53868;BME280;41577;47.470;19.080;2022-12-18T13:06:47;102179.47;;;2.58;81.62
53868;BME280;41577;47.470;19.080;2022-12-18T13:21:54;102198.66;;;2.30;82.06
53868;BME280;41577;47.470;19.080;2022-12-18T14:08:48;102227.75;;;1.65;85.90
53868;BME280;41577;47.470;19.080;2022-12-18T14:24:03;102228.84;;;1.28;83.72
53868;BME280;41577;47.470;19.080;2022-12-18T14:39:13;102233.78;;;0.83;85.11
53868;BME280;41577;47.470;19.080;2022-12-18T14:54:50;102256.91;;;0.40;90.14
53868;BME280;41577;47.470;19.080;2022-12-18T15:25:36;102291.81;;;-0.13;96.57
53868;BME280;41577;47.470;19.080;2022-12-18T15:40:40;102318.44;;;-0.42;99.40
53868;BME280;41577;47.470;19.080;2022-12-18T15:55:45;102331.72;;;-0.65;100.00
53868;BME280;41577;47.470;19.080;2022-12-18T16:10:51;102346.31;;;-0.80;100.00
53868;BME280;41577;47.470;19.080;2022-12-18T16:25:54;102368.06;;;-0.98;100.00
53868;BME280;41577;47.470;19.080;2022-12-18T16:40:58;102374.66;;;-1.10;100.00
53868;BME280;41577;47.470;19.080;2022-12-18T16:56:03;102396.97;;;-1.22;100.00
53868;BME280;41577;47.470;19.080;2022-12-18T17:11:07;102375.88;;;-1.41;100.00
53868;BME280;41577;47.470;19.080;2022-12-18T17:26:11;102368.91;;;-1.42;100.00
53868;BME280;41577;47.470;19.080;2022-12-18T17:41:15;102384.72;;;-1.43;100.00
53868;BME280;41577;47.470;19.080;2022-12-18T17:56:19;102389.69;;;-1.59;100.00
53868;BME280;41577;47.470;19.080;2022-12-18T18:11:23;102380.63;;;-1.74;100.00
53868;BME280;41577;47.470;19.080;2022-12-18T18:26:26;102392.13;;;-1.78;100.00
53868;BME280;41577;47.470;19.080;2022-12-18T18:41:29;102398.13;;;-1.98;100.00
53868;BME280;41577;47.470;19.080;2022-12-18T18:56:32;102420.31;;;-2.10;100.00
53868;BME280;41577;47.470;19.080;2022-12-18T19:11:38;102430.78;;;-2.10;100.00
53868;BME280;41577;47.470;19.080;2022-12-18T19:26:41;102446.94;;;-2.22;100.00
53868;BME280;41577;47.470;19.080;2022-12-18T19:41:46;102460.28;;;-2.30;100.00
53868;BME280;41577;47.470;19.080;2022-12-18T19:56:49;102479.84;;;-2.42;100.00
53868;BME280;41577;47.470;19.080;2022-12-18T20:11:52;102484.88;;;-2.36;100.00
53868;BME280;41577;47.470;19.080;2022-12-18T20:26:55;102497.00;;;-2.33;100.00
53868;BME280;41577;47.470;19.080;2022-12-18T20:41:58;102500.28;;;-2.26;100.00
53868;BME280;41577;47.470;19.080;2022-12-18T20:57:00;102516.25;;;-2.34;100.00
53868;BME280;41577;47.470;19.080;2022-12-18T21:12:03;102517.22;;;-2.37;100.00
53868;BME280;41577;47.470;19.080;2022-12-18T21:27:05;102524.25;;;-2.39;100.00
53868;BME280;41577;47.470;19.080;2022-12-18T21:42:08;102516.44;;;-2.40;100.00
53868;BME280;41577;47.470;19.080;2022-12-18T21:57:11;102518.91;;;-2.62;100.00
53868;BME280;41577;47.470;19.080;2022-12-18T22:12:13;102504.84;;;-2.88;100.00
53868;BME280;41577;47.470;19.080;2022-12-18T22:27:16;102502.47;;;-3.24;100.00
53868;BME280;41577;47.470;19.080;2022-12-18T22:42:18;102520.38;;;-3.41;100.00
53868;BME280;41577;47.470;19.080;2022-12-18T22:57:21;102525.19;;;-3.59;100.00
53868;BME280;41577;47.470;19.080;2022-12-18T23:12:23;102526.97;;;-3.59;100.00
53868;BME280;41577;47.470;19.080;2022-12-18T23:27:27;102530.53;;;-3.63;100.00
53868;BME280;41577;47.470;19.080;2022-12-18T23:42:29;102542.66;;;-3.93;100.00
53868;BME280;41577;47.470;19.080;2022-12-18T23:57:31;102546.31;;;-4.01;100.00
